createdAt,value
2019-02-14T00:01:26.825Z,23.83
2019-02-14T00:03:55.292Z,23.70
2019-02-14T00:06:24.469Z,23.03
2019-02-14T00:08:52.962Z,24.47
2019-02-14T00:11:21.430Z,20.97
2019-02-14T00:13:49.974Z,25.47
2019-02-14T00:16:18.432Z,16.13
2019-02-14T00:18:46.897Z,19.17
2019-02-14T00:21:15.538Z,20.97
2019-02-14T00:23:44.183Z,21.07
2019-02-14T00:26:12.652Z,18.97
2019-02-14T00:28:41.153Z,19.07
2019-02-14T00:31:09.614Z,20.00
2019-02-14T00:33:38.129Z,19.30
2019-02-14T00:36:06.818Z,19.97
2019-02-14T00:38:35.378Z,20.70
2019-02-14T00:41:03.847Z,21.20
2019-02-14T00:43:32.367Z,22.33
2019-02-14T00:46:00.837Z,21.43
2019-02-14T00:48:29.300Z,21.23
2019-02-14T00:50:58.075Z,22.77
2019-02-14T00:53:26.608Z,24.30
2019-02-14T00:55:55.095Z,19.90
2019-02-14T00:58:23.610Z,19.20
2019-02-14T01:00:52.154Z,19.27
2019-02-14T01:03:20.621Z,20.97
2019-02-14T01:05:49.148Z,21.63
2019-02-14T01:08:17.615Z,21.50
2019-02-14T01:10:46.453Z,20.40
2019-02-14T01:13:14.963Z,23.53
2019-02-14T01:15:44.257Z,22.83
2019-02-14T01:18:12.788Z,24.23
2019-02-14T01:20:41.310Z,21.50
2019-02-14T01:23:09.779Z,24.43
2019-02-14T01:25:38.232Z,21.20
2019-02-14T01:28:06.756Z,26.03
2019-02-14T01:30:35.295Z,18.70
2019-02-14T01:33:03.766Z,19.83
2019-02-14T01:35:32.360Z,23.70
2019-02-14T01:38:00.844Z,20.43
2019-02-14T01:40:29.420Z,23.87
2019-02-14T01:42:57.929Z,17.40
2019-02-14T01:45:26.420Z,19.07
2019-02-14T01:47:55.800Z,19.13
2019-02-14T01:50:24.570Z,16.73
2019-02-14T01:52:53.739Z,18.87
2019-02-14T01:55:22.199Z,20.53
2019-02-14T01:57:50.737Z,25.57
2019-02-14T02:00:19.212Z,20.13
2019-02-14T02:02:47.666Z,22.80
2019-02-14T02:05:16.180Z,21.40
2019-02-14T02:07:44.657Z,24.17
2019-02-14T02:10:13.369Z,25.63
2019-02-14T02:12:42.058Z,25.57
2019-02-14T02:15:14.655Z,23.53
2019-02-14T02:17:43.108Z,22.80
2019-02-14T02:20:11.696Z,23.03
2019-02-14T02:22:40.280Z,25.10
2019-02-14T02:25:11.082Z,20.03
2019-02-14T02:27:39.832Z,18.60
2019-02-14T02:30:13.858Z,20.77
2019-02-14T02:32:42.321Z,21.63
2019-02-14T02:35:10.986Z,15.83
2019-02-14T02:37:39.475Z,18.00
2019-02-14T02:40:09.282Z,20.73
2019-02-14T02:42:37.797Z,17.90
2019-02-14T02:45:11.821Z,18.83
2019-02-14T02:47:40.290Z,19.20
2019-02-14T02:50:11.155Z,22.93
2019-02-14T02:52:39.696Z,21.10
2019-02-14T02:55:10.227Z,19.57
2019-02-14T02:57:38.831Z,21.83
2019-02-14T03:00:16.156Z,18.77
2019-02-14T03:02:44.679Z,20.33
2019-02-14T03:05:15.127Z,21.27
2019-02-14T03:07:43.619Z,21.57
2019-02-14T03:10:13.683Z,22.27
2019-02-14T03:12:42.142Z,21.60
2019-02-14T03:15:13.212Z,22.67
2019-02-14T03:17:41.789Z,20.57
2019-02-14T03:20:14.374Z,22.30
2019-02-14T03:22:42.856Z,22.67
2019-02-14T03:25:20.892Z,26.37
2019-02-14T03:27:49.378Z,23.70
2019-02-14T03:30:17.855Z,26.30
2019-02-14T03:32:46.387Z,29.53
2019-02-14T03:35:14.906Z,29.87
2019-02-14T03:37:43.370Z,28.27
2019-02-14T03:40:13.528Z,24.90
2019-02-14T03:42:42.002Z,25.03
2019-02-14T03:45:18.894Z,26.60
2019-02-14T03:47:47.370Z,24.07
2019-02-14T03:50:15.963Z,25.52
2019-02-14T03:52:44.503Z,29.53
2019-02-14T03:55:13.039Z,29.03
2019-02-14T03:57:42.290Z,28.30
2019-02-14T04:00:18.526Z,29.30
2019-02-14T04:02:47.002Z,29.17
2019-02-14T04:05:15.528Z,28.93
2019-02-14T04:07:44.147Z,27.87
2019-02-14T04:10:14.530Z,29.67
2019-02-14T04:12:42.989Z,28.83
2019-02-14T04:15:13.982Z,34.53
2019-02-14T04:17:42.444Z,33.30
2019-02-14T04:20:11.745Z,32.50
2019-02-14T04:22:40.265Z,33.77
2019-02-14T04:25:09.971Z,30.20
2019-02-14T04:27:38.529Z,26.37
2019-02-14T04:30:10.106Z,25.93
2019-02-14T04:32:38.598Z,24.57
2019-02-14T04:35:07.294Z,24.53
2019-02-14T04:37:35.830Z,22.70
2019-02-14T04:40:13.038Z,26.15
2019-02-14T04:42:41.670Z,22.50
2019-02-14T04:45:11.873Z,23.10
2019-02-14T04:47:40.345Z,24.70
2019-02-14T04:50:10.696Z,32.20
2019-02-14T04:52:39.160Z,41.47
2019-02-14T04:55:09.764Z,35.77
2019-02-14T04:57:38.417Z,38.03
2019-02-14T05:00:14.757Z,32.53
2019-02-14T05:02:43.275Z,35.40
2019-02-14T05:05:12.074Z,34.97
2019-02-14T05:07:40.540Z,35.30
2019-02-14T05:10:11.094Z,30.17
2019-02-14T05:12:39.553Z,33.33
2019-02-14T05:15:11.691Z,29.43
2019-02-14T05:17:40.208Z,23.80
2019-02-14T05:20:12.864Z,27.73
2019-02-14T05:22:41.331Z,28.83
2019-02-14T05:25:10.485Z,22.37
2019-02-14T05:27:39.051Z,24.73
2019-02-14T05:30:16.093Z,28.33
2019-02-14T05:32:44.628Z,24.63
2019-02-14T05:35:13.092Z,32.10
2019-02-14T05:37:41.614Z,32.13
2019-02-14T05:40:11.420Z,27.53
2019-02-14T05:42:39.956Z,25.80
2019-02-14T05:45:12.806Z,22.03
2019-02-14T05:47:41.270Z,23.77
2019-02-14T05:50:11.605Z,23.40
2019-02-14T05:52:40.224Z,29.07
2019-02-14T05:55:10.629Z,23.73
2019-02-14T05:57:39.122Z,25.97
2019-02-14T06:00:10.670Z,22.23
2019-02-14T06:02:39.342Z,30.20
2019-02-14T06:05:07.982Z,34.40
2019-02-14T06:07:36.501Z,33.60
2019-02-14T06:10:07.802Z,29.37
2019-02-14T06:12:36.271Z,39.43
2019-02-14T06:15:07.324Z,37.87
2019-02-14T06:17:35.788Z,23.20
2019-02-14T06:20:07.078Z,48.17
2019-02-14T06:22:35.600Z,35.87
2019-02-14T06:25:05.455Z,50.97
2019-02-14T06:27:33.921Z,48.10
2019-02-14T06:30:02.510Z,55.67
2019-02-14T06:32:31.043Z,53.00
2019-02-14T06:34:59.598Z,56.77
2019-02-14T06:37:28.129Z,50.60
2019-02-14T06:39:56.665Z,46.17
2019-02-14T06:42:25.157Z,54.50
2019-02-14T06:44:53.669Z,54.53
2019-02-14T06:47:22.130Z,42.37
2019-02-14T06:49:50.596Z,31.80
2019-02-14T06:52:19.126Z,26.87
2019-02-14T06:54:47.665Z,40.80
2019-02-14T06:57:16.135Z,41.17
2019-02-14T06:59:44.659Z,30.30
2019-02-14T07:02:13.201Z,35.43
2019-02-14T07:04:41.851Z,38.90
2019-02-14T07:07:17.899Z,35.60
2019-02-14T07:09:40.633Z,36.00
2019-02-14T07:12:09.124Z,38.13
2019-02-14T07:14:37.616Z,35.60
2019-02-14T07:17:06.186Z,44.50
2019-02-14T07:19:34.712Z,46.37
2019-02-14T07:22:03.173Z,41.63
2019-02-14T07:24:31.648Z,35.63
2019-02-14T07:27:00.219Z,41.37
2019-02-14T07:29:28.688Z,38.03
2019-02-14T07:31:57.163Z,39.20
2019-02-14T07:34:25.665Z,38.33
2019-02-14T07:36:54.423Z,41.60
2019-02-14T07:39:22.931Z,39.30
2019-02-14T07:41:52.440Z,35.17
2019-02-14T07:44:20.907Z,36.80
2019-02-14T07:46:49.415Z,41.43
2019-02-14T07:49:18.013Z,41.70
2019-02-14T07:51:46.504Z,40.13
2019-02-14T07:54:14.981Z,39.63
2019-02-14T07:56:43.508Z,42.70
2019-02-14T07:59:11.961Z,39.80
2019-02-14T08:01:40.496Z,34.47
2019-02-14T08:04:09.018Z,35.50
2019-02-14T08:06:38.271Z,32.73
2019-02-14T08:09:06.964Z,37.17
2019-02-14T08:11:35.513Z,36.90
2019-02-14T08:14:03.984Z,38.17
2019-02-14T08:16:32.529Z,40.63
2019-02-14T08:19:01.025Z,36.50
2019-02-14T08:21:29.498Z,33.73
2019-02-14T08:23:58.064Z,36.27
2019-02-14T08:26:26.585Z,35.37
2019-02-14T08:28:55.065Z,37.80
2019-02-14T08:31:23.530Z,35.30
2019-02-14T08:33:52.046Z,33.83
2019-02-14T08:36:20.516Z,36.80
2019-02-14T08:38:48.998Z,33.97
2019-02-14T08:41:17.510Z,37.47
2019-02-14T08:43:45.976Z,35.90
2019-02-14T08:46:14.474Z,32.90
2019-02-14T08:48:43.055Z,39.70
2019-02-14T08:51:11.546Z,35.23
2019-02-14T08:53:40.009Z,35.63
2019-02-14T08:56:08.628Z,159.27
2019-02-14T08:58:37.097Z,69.23
2019-02-14T09:01:05.632Z,242.23
2019-02-14T09:03:34.153Z,60.13
2019-02-14T09:06:02.620Z,63.60
2019-02-14T09:08:31.455Z,43.43
2019-02-14T09:10:59.981Z,40.73
2019-02-14T09:13:28.448Z,41.47
2019-02-14T09:15:56.905Z,76.47
2019-02-14T09:18:25.429Z,65.13
2019-02-14T09:20:53.903Z,128.80
2019-02-14T09:23:23.461Z,68.43
2019-02-14T09:25:51.983Z,58.83
2019-02-14T09:28:20.450Z,43.80
2019-02-14T09:30:48.930Z,49.93
2019-02-14T09:33:17.450Z,39.90
2019-02-14T09:35:46.056Z,51.53
2019-02-14T09:38:14.566Z,40.20
2019-02-14T09:40:43.093Z,47.67
2019-02-14T09:43:11.553Z,49.90
2019-02-14T09:45:40.028Z,30.67
2019-02-14T09:48:08.597Z,37.63
2019-02-14T09:50:37.129Z,62.33
2019-02-14T09:53:05.683Z,31.57
2019-02-14T09:55:34.248Z,26.27
2019-02-14T09:58:02.808Z,69.73
2019-02-14T10:00:31.362Z,31.77
2019-02-14T10:02:59.890Z,32.70
2019-02-14T10:05:28.378Z,30.43
2019-02-14T10:07:56.829Z,28.53
2019-02-14T10:10:25.448Z,37.63
2019-02-14T10:12:53.919Z,20.40
2019-02-14T10:15:22.423Z,45.13
2019-02-14T10:17:50.952Z,21.57
2019-02-14T10:20:19.490Z,23.40
2019-02-14T10:22:48.050Z,21.70
2019-02-14T10:25:16.545Z,21.53
2019-02-14T10:27:45.091Z,37.30
2019-02-14T10:30:24.521Z,24.47
2019-02-14T10:32:52.991Z,25.83
2019-02-14T10:35:21.445Z,22.27
2019-02-14T10:37:50.049Z,16.90
2019-02-14T10:40:18.582Z,27.23
2019-02-14T10:42:47.130Z,22.93
2019-02-14T10:45:19.988Z,20.47
2019-02-14T10:47:48.532Z,33.70
2019-02-14T10:50:17.248Z,20.93
2019-02-14T10:52:46.055Z,19.93
2019-02-14T10:55:16.397Z,29.90
2019-02-14T10:57:45.029Z,20.30
2019-02-14T11:00:21.942Z,22.47
2019-02-14T11:02:50.479Z,23.97
2019-02-14T11:05:19.386Z,19.00
2019-02-14T11:07:47.979Z,19.07
2019-02-14T11:10:16.996Z,23.30
2019-02-14T11:12:46.079Z,26.70
2019-02-14T11:15:22.204Z,25.40
2019-02-14T11:17:50.670Z,18.50
2019-02-14T11:20:19.205Z,27.80
2019-02-14T11:22:49.031Z,29.77
2019-02-14T11:25:32.871Z,26.83
2019-02-14T11:28:01.518Z,28.97
2019-02-14T11:30:29.984Z,26.27
2019-02-14T11:32:58.529Z,27.87
2019-02-14T11:35:27.206Z,27.47
2019-02-14T11:37:55.763Z,26.27
2019-02-14T11:40:24.229Z,24.50
2019-02-14T11:42:52.744Z,28.07
2019-02-14T11:45:23.632Z,25.07
2019-02-14T11:47:52.242Z,22.87
2019-02-14T11:50:20.773Z,24.00
2019-02-14T11:52:49.285Z,24.17
2019-02-14T11:55:17.819Z,25.60
2019-02-14T11:57:46.413Z,21.93
2019-02-14T12:00:23.957Z,21.73
2019-02-14T12:02:55.733Z,21.47
2019-02-14T12:05:22.854Z,21.57
2019-02-14T12:07:51.323Z,22.47
2019-02-14T12:10:19.830Z,21.60
2019-02-14T12:12:48.492Z,19.00
2019-02-14T12:15:17.184Z,19.27
2019-02-14T12:17:45.743Z,19.73
2019-02-14T12:20:16.944Z,21.57
2019-02-14T12:22:47.176Z,21.20
2019-02-14T12:25:21.331Z,17.37
2019-02-14T12:27:49.899Z,17.77
2019-02-14T12:30:18.434Z,19.90
2019-02-14T12:32:47.006Z,18.33
2019-02-14T12:35:15.553Z,19.93
2019-02-14T12:37:44.012Z,20.67
2019-02-14T12:40:13.968Z,22.23
2019-02-14T12:42:42.487Z,21.23
2019-02-14T12:45:24.210Z,20.17
2019-02-14T12:47:52.557Z,23.47
2019-02-14T12:50:21.020Z,22.67
2019-02-14T12:52:49.539Z,23.17
2019-02-14T12:55:18.002Z,22.53
2019-02-14T12:57:46.570Z,20.30
2019-02-14T13:00:20.597Z,18.93
2019-02-14T13:02:49.078Z,20.93
2019-02-14T13:05:17.562Z,20.73
2019-02-14T13:07:46.207Z,19.40
2019-02-14T13:10:18.735Z,21.48
2019-02-14T13:12:47.381Z,18.87
2019-02-14T13:15:26.817Z,19.80
2019-02-14T13:17:56.250Z,21.97
2019-02-14T13:20:24.719Z,23.67
2019-02-14T13:22:53.253Z,23.83
2019-02-14T13:25:21.814Z,19.87
2019-02-14T13:27:50.292Z,16.80
2019-02-14T13:30:21.720Z,19.73
2019-02-14T13:32:50.398Z,22.83
2019-02-14T13:35:19.143Z,17.43
2019-02-14T13:37:47.674Z,16.87
2019-02-14T13:40:16.268Z,19.43
2019-02-14T13:42:44.779Z,20.73
2019-02-14T13:45:19.249Z,19.43
2019-02-14T13:47:47.810Z,23.97
2019-02-14T13:50:16.316Z,18.60
2019-02-14T13:52:44.831Z,20.43
2019-02-14T13:55:13.642Z,21.30
2019-02-14T13:57:42.288Z,20.57
2019-02-14T14:00:14.008Z,24.90
2019-02-14T14:02:42.474Z,21.20
2019-02-14T14:05:11.041Z,21.27
2019-02-14T14:07:40.619Z,21.80
2019-02-14T14:10:10.246Z,19.83
2019-02-14T14:12:38.711Z,20.53
2019-02-14T14:15:09.269Z,18.10
2019-02-14T14:17:37.747Z,19.23
2019-02-14T14:20:07.847Z,18.77
2019-02-14T14:22:36.435Z,18.60
2019-02-14T14:25:09.771Z,16.43
2019-02-14T14:27:38.288Z,17.33
2019-02-14T14:30:09.947Z,15.73
2019-02-14T14:32:38.454Z,19.10
2019-02-14T14:35:10.687Z,20.40
2019-02-14T14:37:38.905Z,20.30
2019-02-14T14:40:20.468Z,17.37
2019-02-14T14:42:50.684Z,17.37
2019-02-14T14:45:39.260Z,16.87
2019-02-14T14:48:09.455Z,15.60
2019-02-14T14:50:37.947Z,17.40
2019-02-14T14:53:07.616Z,17.83
2019-02-14T14:55:36.274Z,15.60
2019-02-14T14:58:04.743Z,16.53
2019-02-14T15:00:33.403Z,18.00
2019-02-14T15:03:01.866Z,14.27
2019-02-14T15:05:30.435Z,15.37
2019-02-14T15:07:58.936Z,16.67
2019-02-14T15:10:27.400Z,12.80
2019-02-14T15:12:55.912Z,15.83
2019-02-14T15:15:24.640Z,16.73
2019-02-14T15:17:53.171Z,17.33
2019-02-14T15:20:21.629Z,18.33
2019-02-14T15:22:50.704Z,17.33
2019-02-14T15:25:19.174Z,18.07
2019-02-14T15:27:47.650Z,16.10
2019-02-14T15:30:16.251Z,19.02
2019-02-14T15:32:44.793Z,18.63
2019-02-14T15:35:13.260Z,18.57
2019-02-14T15:37:44.222Z,16.97
2019-02-14T15:40:12.085Z,16.85
2019-02-14T15:42:40.550Z,19.83
2019-02-14T15:45:09.423Z,17.40
2019-02-14T15:47:37.889Z,17.63
2019-02-14T15:50:09.728Z,15.03
2019-02-14T15:52:38.337Z,17.67
2019-02-14T15:55:07.959Z,16.20
2019-02-14T15:57:36.504Z,13.03
2019-02-14T16:00:12.267Z,16.70
2019-02-14T16:02:40.723Z,18.93
2019-02-14T16:05:09.331Z,19.97
2019-02-14T16:07:39.541Z,25.17
2019-02-14T16:10:18.106Z,28.57
2019-02-14T16:12:41.290Z,24.60
2019-02-14T16:15:10.567Z,25.60
2019-02-14T16:17:39.033Z,28.13
2019-02-14T16:20:08.623Z,31.67
2019-02-14T16:22:37.180Z,33.47
2019-02-14T16:25:07.375Z,34.77
2019-02-14T16:27:35.869Z,31.03
2019-02-14T16:30:07.713Z,32.37
2019-02-14T16:32:36.013Z,32.30
2019-02-14T16:35:05.211Z,32.87
2019-02-14T16:37:33.727Z,39.73
2019-02-14T16:40:02.314Z,33.37
2019-02-14T16:42:30.808Z,34.03
2019-02-14T16:44:59.327Z,38.20
2019-02-14T16:47:27.796Z,38.00
2019-02-14T16:49:56.298Z,41.37
2019-02-14T16:52:24.863Z,40.30
2019-02-14T16:54:53.368Z,38.80
2019-02-14T16:57:21.918Z,44.10
2019-02-14T16:59:50.437Z,45.63
2019-02-14T17:02:18.905Z,41.20
2019-02-14T17:04:47.390Z,36.73
2019-02-14T17:07:15.984Z,41.03
2019-02-14T17:09:44.654Z,42.23
2019-02-14T17:12:13.211Z,42.23
2019-02-14T17:14:41.906Z,38.97
2019-02-14T17:17:10.449Z,42.93
2019-02-14T17:19:38.927Z,39.40
2019-02-14T17:22:07.463Z,41.00
2019-02-14T17:24:35.919Z,41.30
2019-02-14T17:27:04.595Z,42.93
2019-02-14T17:29:33.552Z,42.30
2019-02-14T17:32:02.091Z,44.75
2019-02-14T17:34:30.558Z,44.97
2019-02-14T17:36:59.108Z,48.43
2019-02-14T17:39:27.567Z,45.20
2019-02-14T17:41:56.041Z,47.03
2019-02-14T17:44:25.557Z,45.03
2019-02-14T17:46:54.046Z,45.77
2019-02-14T17:49:22.516Z,45.10
2019-02-14T17:51:51.041Z,47.73
2019-02-14T17:54:19.543Z,45.70
2019-02-14T17:56:48.101Z,51.43
2019-02-14T17:59:16.641Z,46.03
2019-02-14T18:01:45.256Z,51.27
2019-02-14T18:04:13.720Z,48.70
2019-02-14T18:06:42.255Z,51.13
2019-02-14T18:09:10.797Z,54.30
2019-02-14T18:11:39.269Z,52.33
2019-02-14T18:14:07.814Z,50.07
2019-02-14T18:16:36.369Z,53.20
2019-02-14T18:19:06.672Z,50.23
2019-02-14T18:21:35.274Z,52.77
2019-02-14T18:24:04.386Z,51.07
2019-02-14T18:26:32.839Z,54.70
2019-02-14T18:29:01.656Z,55.50
2019-02-14T18:31:30.127Z,54.17
2019-02-14T18:33:58.600Z,55.67
2019-02-14T18:36:27.152Z,56.67
2019-02-14T18:38:58.185Z,48.87
2019-02-14T18:41:26.657Z,55.67
2019-02-14T18:43:55.187Z,56.53
2019-02-14T18:46:23.657Z,57.03
2019-02-14T18:48:52.135Z,59.37
2019-02-14T18:51:21.677Z,60.45
2019-02-14T18:53:50.145Z,55.80
2019-02-14T18:56:18.609Z,60.73
2019-02-14T18:58:48.073Z,56.00
2019-02-14T19:01:16.550Z,59.30
2019-02-14T19:03:45.021Z,63.43
2019-02-14T19:06:13.585Z,58.17
2019-02-14T19:08:42.118Z,60.27
2019-02-14T19:11:15.133Z,56.13
2019-02-14T19:13:40.831Z,60.40
2019-02-14T19:16:09.314Z,59.17
2019-02-14T19:18:37.789Z,56.93
2019-02-14T19:21:06.388Z,57.87
2019-02-14T19:23:34.866Z,59.43
2019-02-14T19:26:03.362Z,53.40
2019-02-14T19:28:32.149Z,55.50
2019-02-14T19:31:00.726Z,54.03
2019-02-14T19:33:29.186Z,56.63
2019-02-14T19:35:57.781Z,48.90
2019-02-14T19:38:27.461Z,49.93
2019-02-14T19:40:57.578Z,46.70
2019-02-14T19:43:26.107Z,52.90
2019-02-14T19:45:54.579Z,52.13
2019-02-14T19:48:23.115Z,53.17
2019-02-14T19:50:52.571Z,51.70
2019-02-14T19:53:21.128Z,47.97
2019-02-14T19:55:49.591Z,50.47
2019-02-14T19:58:18.106Z,49.53
2019-02-14T20:00:46.594Z,53.00
2019-02-14T20:03:15.047Z,54.77
2019-02-14T20:05:43.665Z,48.80
2019-02-14T20:08:12.128Z,47.13
2019-02-14T20:10:40.604Z,44.43
2019-02-14T20:13:09.162Z,45.40
2019-02-14T20:15:37.720Z,45.17
2019-02-14T20:18:06.158Z,41.70
2019-02-14T20:20:34.713Z,46.47
2019-02-14T20:23:03.183Z,40.47
2019-02-14T20:25:31.641Z,40.70
2019-02-14T20:28:00.171Z,40.07
2019-02-14T20:30:28.634Z,40.40
2019-02-14T20:33:04.381Z,39.27
2019-02-14T20:35:27.766Z,39.90
2019-02-14T20:37:56.229Z,34.90
2019-02-14T20:40:24.765Z,37.53
2019-02-14T20:42:53.332Z,34.13
2019-02-14T20:45:21.929Z,35.97
2019-02-14T20:47:50.407Z,34.47
2019-02-14T20:50:18.919Z,30.83
2019-02-14T20:52:47.407Z,35.90
2019-02-14T20:55:24.365Z,32.70
2019-02-14T20:57:52.898Z,34.67
2019-02-14T21:00:36.886Z,35.93
2019-02-14T21:03:05.894Z,35.83
2019-02-14T21:05:34.510Z,36.13
2019-02-14T21:08:06.096Z,39.23
2019-02-14T21:10:34.587Z,35.53
2019-02-14T21:13:03.218Z,38.60
2019-02-14T21:15:31.766Z,39.77
2019-02-14T21:18:00.231Z,32.27
2019-02-14T21:20:28.776Z,33.57
2019-02-14T21:22:57.357Z,35.30
2019-02-14T21:25:25.902Z,31.60
2019-02-14T21:27:55.504Z,40.80
2019-02-14T21:30:24.021Z,39.40
2019-02-14T21:32:52.482Z,40.30
2019-02-14T21:35:21.153Z,34.63
2019-02-14T21:37:49.642Z,37.50
2019-02-14T21:40:19.489Z,47.33
2019-02-14T21:42:48.583Z,41.33
2019-02-14T21:45:17.890Z,40.90
2019-02-14T21:47:46.367Z,37.83
2019-02-14T21:50:15.990Z,41.27
2019-02-14T21:52:44.562Z,41.10
2019-02-14T21:55:14.158Z,38.17
2019-02-14T21:57:42.709Z,37.77
2019-02-14T22:00:26.033Z,37.10
2019-02-14T22:02:54.616Z,37.80
2019-02-14T22:05:25.770Z,34.37
2019-02-14T22:07:53.406Z,32.27
2019-02-14T22:10:21.984Z,29.30
2019-02-14T22:12:50.842Z,31.53
2019-02-14T22:15:22.101Z,30.40
2019-02-14T22:17:50.754Z,29.97
2019-02-14T22:20:19.276Z,31.67
2019-02-14T22:22:47.829Z,37.63
2019-02-14T22:25:16.504Z,34.63
2019-02-14T22:27:44.979Z,33.93
2019-02-14T22:30:17.511Z,34.63
2019-02-14T22:32:46.467Z,36.20
2019-02-14T22:35:15.169Z,35.13
2019-02-14T22:37:43.632Z,37.90
2019-02-14T22:40:13.597Z,35.23
2019-02-14T22:42:47.237Z,41.37
2019-02-14T22:45:14.142Z,39.20
2019-02-14T22:47:43.753Z,40.27
2019-02-14T22:50:12.866Z,44.47
2019-02-14T22:52:41.469Z,59.23
2019-02-14T22:55:14.006Z,62.40
2019-02-14T22:57:42.544Z,70.97
2019-02-14T23:00:32.374Z,63.65
2019-02-14T23:03:00.948Z,60.87
2019-02-14T23:05:29.421Z,56.70
2019-02-14T23:07:57.953Z,46.93
2019-02-14T23:10:26.523Z,49.50
2019-02-14T23:12:56.044Z,52.47
2019-02-14T23:15:24.961Z,43.97
2019-02-14T23:17:53.429Z,45.00
2019-02-14T23:20:21.990Z,41.53
2019-02-14T23:22:50.507Z,41.70
2019-02-14T23:25:19.018Z,43.27
2019-02-14T23:27:47.478Z,39.17
2019-02-14T23:30:16.065Z,39.18
2019-02-14T23:32:44.659Z,40.13
2019-02-14T23:35:13.139Z,44.43
2019-02-14T23:37:41.673Z,44.60
2019-02-14T23:40:10.798Z,46.57
2019-02-14T23:42:39.328Z,45.40
2019-02-14T23:45:09.580Z,48.90
2019-02-14T23:47:38.046Z,48.13
2019-02-14T23:50:10.749Z,49.33
2019-02-14T23:52:42.514Z,49.63
2019-02-14T23:55:11.053Z,51.37
2019-02-14T23:57:39.678Z,48.93
